sensor_id;sensor_type;location;lat;lon;timestamp;temperature;humidity
62583;DHT22;48641;51.676;5.808;2022-12-11T00:01:26;10.80;63.10
62583;DHT22;48641;51.676;5.808;2022-12-11T00:03:51;10.90;63.10
62583;DHT22;48641;51.676;5.808;2022-12-11T00:06:20;10.80;63.00
62583;DHT22;48641;51.676;5.808;2022-12-11T00:08:46;10.80;63.00
62583;DHT22;48641;51.676;5.808;2022-12-11T00:11:13;10.80;63.00
62583;DHT22;48641;51.676;5.808;2022-12-11T00:13:39;10.80;63.10
62583;DHT22;48641;51.676;5.808;2022-12-11T00:16:05;10.80;63.10
62583;DHT22;48641;51.676;5.808;2022-12-11T00:18:31;10.90;63.10
62583;DHT22;48641;51.676;5.808;2022-12-11T00:21:04;10.80;63.10
62583;DHT22;48641;51.676;5.808;2022-12-11T00:23:30;10.80;63.10
62583;DHT22;48641;51.676;5.808;2022-12-11T00:25:55;10.80;63.00
62583;DHT22;48641;51.676;5.808;2022-12-11T00:28:21;10.80;63.00
62583;DHT22;48641;51.676;5.808;2022-12-11T00:30:48;10.80;63.10
62583;DHT22;48641;51.676;5.808;2022-12-11T00:33:14;10.80;63.10
62583;DHT22;48641;51.676;5.808;2022-12-11T00:35:42;10.80;63.10
62583;DHT22;48641;51.676;5.808;2022-12-11T00:38:17;10.80;63.10
62583;DHT22;48641;51.676;5.808;2022-12-11T00:40:43;10.80;63.10
62583;DHT22;48641;51.676;5.808;2022-12-11T00:43:09;10.80;63.10
62583;DHT22;48641;51.676;5.808;2022-12-11T00:45:42;10.80;63.10
62583;DHT22;48641;51.676;5.808;2022-12-11T00:48:09;10.80;63.10
62583;DHT22;48641;51.676;5.808;2022-12-11T00:50:35;10.80;63.10
62583;DHT22;48641;51.676;5.808;2022-12-11T00:53:02;10.80;63.10
62583;DHT22;48641;51.676;5.808;2022-12-11T00:55:27;10.80;63.10
62583;DHT22;48641;51.676;5.808;2022-12-11T00:57:54;10.80;63.10
62583;DHT22;48641;51.676;5.808;2022-12-11T01:00:20;10.80;63.10
62583;DHT22;48641;51.676;5.808;2022-12-11T01:02:50;10.80;63.10
62583;DHT22;48641;51.676;5.808;2022-12-11T01:05:15;10.80;63.10
62583;DHT22;48641;51.676;5.808;2022-12-11T01:07:41;10.80;63.10
62583;DHT22;48641;51.676;5.808;2022-12-11T01:10:07;10.80;63.10
62583;DHT22;48641;51.676;5.808;2022-12-11T01:15:24;10.80;63.10
62583;DHT22;48641;51.676;5.808;2022-12-11T01:17:51;10.80;63.20
62583;DHT22;48641;51.676;5.808;2022-12-11T01:20:18;10.70;63.10
62583;DHT22;48641;51.676;5.808;2022-12-11T01:22:43;10.80;63.10
62583;DHT22;48641;51.676;5.808;2022-12-11T01:25:09;10.70;63.10
62583;DHT22;48641;51.676;5.808;2022-12-11T01:27:36;10.80;63.10
62583;DHT22;48641;51.676;5.808;2022-12-11T01:30:02;10.80;63.20
62583;DHT22;48641;51.676;5.808;2022-12-11T01:32:28;10.80;63.20
62583;DHT22;48641;51.676;5.808;2022-12-11T01:34:54;10.70;63.20
62583;DHT22;48641;51.676;5.808;2022-12-11T01:37:19;10.80;63.10
62583;DHT22;48641;51.676;5.808;2022-12-11T01:39:45;10.70;63.00
62583;DHT22;48641;51.676;5.808;2022-12-11T01:42:16;10.70;63.00
62583;DHT22;48641;51.676;5.808;2022-12-11T01:47:10;10.80;63.10
62583;DHT22;48641;51.676;5.808;2022-12-11T01:49:37;10.70;63.10
62583;DHT22;48641;51.676;5.808;2022-12-11T01:52:19;10.70;63.10
62583;DHT22;48641;51.676;5.808;2022-12-11T01:54:45;10.70;63.10
62583;DHT22;48641;51.676;5.808;2022-12-11T01:57:13;10.70;63.10
62583;DHT22;48641;51.676;5.808;2022-12-11T01:59:42;10.70;63.10
62583;DHT22;48641;51.676;5.808;2022-12-11T02:02:25;10.70;63.10
62583;DHT22;48641;51.676;5.808;2022-12-11T02:04:52;10.80;63.10
62583;DHT22;48641;51.676;5.808;2022-12-11T02:07:17;10.70;63.20
62583;DHT22;48641;51.676;5.808;2022-12-11T02:09:45;10.70;63.20
62583;DHT22;48641;51.676;5.808;2022-12-11T02:28:38;10.70;63.30
62583;DHT22;48641;51.676;5.808;2022-12-11T02:31:31;10.70;63.20
62583;DHT22;48641;51.676;5.808;2022-12-11T02:34:10;10.60;63.30
62583;DHT22;48641;51.676;5.808;2022-12-11T02:36:41;10.60;63.30
62583;DHT22;48641;51.676;5.808;2022-12-11T02:39:09;10.60;63.40
62583;DHT22;48641;51.676;5.808;2022-12-11T02:41:37;10.60;63.30
62583;DHT22;48641;51.676;5.808;2022-12-11T02:44:04;10.60;63.40
62583;DHT22;48641;51.676;5.808;2022-12-11T02:46:31;10.60;63.60
62583;DHT22;48641;51.676;5.808;2022-12-11T02:48:59;10.60;64.50
62583;DHT22;48641;51.676;5.808;2022-12-11T02:51:29;10.60;63.50
62583;DHT22;48641;51.676;5.808;2022-12-11T02:53:57;10.60;63.50
62583;DHT22;48641;51.676;5.808;2022-12-11T02:56:29;10.60;63.50
62583;DHT22;48641;51.676;5.808;2022-12-11T02:59:02;10.60;63.50
62583;DHT22;48641;51.676;5.808;2022-12-11T03:01:29;10.60;63.50
62583;DHT22;48641;51.676;5.808;2022-12-11T03:03:54;10.60;63.40
62583;DHT22;48641;51.676;5.808;2022-12-11T03:06:25;10.60;63.50
62583;DHT22;48641;51.676;5.808;2022-12-11T03:08:51;10.60;63.40
62583;DHT22;48641;51.676;5.808;2022-12-11T03:11:17;10.60;63.40
62583;DHT22;48641;51.676;5.808;2022-12-11T03:13:43;10.60;63.30
62583;DHT22;48641;51.676;5.808;2022-12-11T03:19:31;10.60;63.30
62583;DHT22;48641;51.676;5.808;2022-12-11T03:24:57;10.60;63.50
62583;DHT22;48641;51.676;5.808;2022-12-11T03:27:32;10.60;63.50
62583;DHT22;48641;51.676;5.808;2022-12-11T03:30:05;10.60;63.40
62583;DHT22;48641;51.676;5.808;2022-12-11T03:32:50;10.60;63.50
62583;DHT22;48641;51.676;5.808;2022-12-11T03:37:50;10.60;63.50
62583;DHT22;48641;51.676;5.808;2022-12-11T03:40:19;10.60;63.40
62583;DHT22;48641;51.676;5.808;2022-12-11T03:42:46;10.60;63.40
62583;DHT22;48641;51.676;5.808;2022-12-11T03:45:15;10.60;63.40
62583;DHT22;48641;51.676;5.808;2022-12-11T03:47:41;10.50;63.60
62583;DHT22;48641;51.676;5.808;2022-12-11T03:50:09;10.50;63.60
62583;DHT22;48641;51.676;5.808;2022-12-11T03:52:39;10.50;63.50
62583;DHT22;48641;51.676;5.808;2022-12-11T03:55:06;10.50;63.50
62583;DHT22;48641;51.676;5.808;2022-12-11T03:57:34;10.50;63.50
62583;DHT22;48641;51.676;5.808;2022-12-11T04:00:00;10.50;63.50
62583;DHT22;48641;51.676;5.808;2022-12-11T04:02:29;10.60;63.50
62583;DHT22;48641;51.676;5.808;2022-12-11T04:04:55;10.60;63.50
62583;DHT22;48641;51.676;5.808;2022-12-11T04:07:21;10.60;63.50
62583;DHT22;48641;51.676;5.808;2022-12-11T04:09:46;10.60;63.50
62583;DHT22;48641;51.676;5.808;2022-12-11T04:12:12;10.60;63.50
62583;DHT22;48641;51.676;5.808;2022-12-11T04:14:37;10.60;63.50
62583;DHT22;48641;51.676;5.808;2022-12-11T04:17:22;10.60;63.40
62583;DHT22;48641;51.676;5.808;2022-12-11T04:20:06;10.60;63.50
62583;DHT22;48641;51.676;5.808;2022-12-11T04:22:50;10.50;63.40
62583;DHT22;48641;51.676;5.808;2022-12-11T04:25:34;10.50;63.40
62583;DHT22;48641;51.676;5.808;2022-12-11T04:28:00;10.50;63.40
62583;DHT22;48641;51.676;5.808;2022-12-11T04:30:26;10.50;63.40
62583;DHT22;48641;51.676;5.808;2022-12-11T04:32:52;10.50;63.40
62583;DHT22;48641;51.676;5.808;2022-12-11T04:35:18;10.50;63.40
62583;DHT22;48641;51.676;5.808;2022-12-11T04:37:45;10.50;63.40
62583;DHT22;48641;51.676;5.808;2022-12-11T04:40:13;10.50;63.40
62583;DHT22;48641;51.676;5.808;2022-12-11T04:42:39;10.60;63.50
62583;DHT22;48641;51.676;5.808;2022-12-11T04:45:05;10.50;63.40
62583;DHT22;48641;51.676;5.808;2022-12-11T04:47:34;10.50;63.40
62583;DHT22;48641;51.676;5.808;2022-12-11T04:50:00;10.50;63.40
62583;DHT22;48641;51.676;5.808;2022-12-11T04:52:26;10.60;64.40
62583;DHT22;48641;51.676;5.808;2022-12-11T04:54:51;10.60;63.40
62583;DHT22;48641;51.676;5.808;2022-12-11T04:57:17;10.50;63.40
62583;DHT22;48641;51.676;5.808;2022-12-11T04:59:45;10.60;63.50
62583;DHT22;48641;51.676;5.808;2022-12-11T05:02:10;10.50;63.40
62583;DHT22;48641;51.676;5.808;2022-12-11T05:04:36;10.50;63.40
62583;DHT22;48641;51.676;5.808;2022-12-11T05:07:01;10.50;63.40
62583;DHT22;48641;51.676;5.808;2022-12-11T05:09:27;10.50;63.40
62583;DHT22;48641;51.676;5.808;2022-12-11T05:11:53;10.50;63.40
62583;DHT22;48641;51.676;5.808;2022-12-11T05:14:19;10.50;63.40
62583;DHT22;48641;51.676;5.808;2022-12-11T05:16:45;10.50;63.40
62583;DHT22;48641;51.676;5.808;2022-12-11T05:19:11;10.50;63.40
62583;DHT22;48641;51.676;5.808;2022-12-11T05:21:36;10.50;63.40
62583;DHT22;48641;51.676;5.808;2022-12-11T05:24:02;10.50;63.40
62583;DHT22;48641;51.676;5.808;2022-12-11T05:26:28;10.50;63.40
62583;DHT22;48641;51.676;5.808;2022-12-11T05:28:55;10.50;63.40
62583;DHT22;48641;51.676;5.808;2022-12-11T05:31:26;10.50;63.40
62583;DHT22;48641;51.676;5.808;2022-12-11T05:33:52;10.50;63.50
62583;DHT22;48641;51.676;5.808;2022-12-11T05:36:32;10.50;63.40
62583;DHT22;48641;51.676;5.808;2022-12-11T05:38:59;10.50;63.40
62583;DHT22;48641;51.676;5.808;2022-12-11T05:41:26;10.50;63.50
62583;DHT22;48641;51.676;5.808;2022-12-11T05:43:52;10.50;63.50
62583;DHT22;48641;51.676;5.808;2022-12-11T05:46:20;10.50;63.50
62583;DHT22;48641;51.676;5.808;2022-12-11T05:48:48;10.50;63.50
62583;DHT22;48641;51.676;5.808;2022-12-11T05:51:15;10.50;63.40
62583;DHT22;48641;51.676;5.808;2022-12-11T05:53:42;10.50;63.50
62583;DHT22;48641;51.676;5.808;2022-12-11T05:56:14;10.50;63.50
62583;DHT22;48641;51.676;5.808;2022-12-11T05:58:41;10.50;63.50
62583;DHT22;48641;51.676;5.808;2022-12-11T06:01:10;10.50;63.50
62583;DHT22;48641;51.676;5.808;2022-12-11T06:03:36;10.50;63.50
62583;DHT22;48641;51.676;5.808;2022-12-11T06:06:03;10.50;63.50
62583;DHT22;48641;51.676;5.808;2022-12-11T06:08:29;10.50;63.50
62583;DHT22;48641;51.676;5.808;2022-12-11T06:10:55;10.50;63.50
62583;DHT22;48641;51.676;5.808;2022-12-11T06:13:20;10.50;63.60
62583;DHT22;48641;51.676;5.808;2022-12-11T06:15:46;10.50;63.50
62583;DHT22;48641;51.676;5.808;2022-12-11T06:18:11;10.50;63.60
62583;DHT22;48641;51.676;5.808;2022-12-11T06:20:37;10.50;63.60
62583;DHT22;48641;51.676;5.808;2022-12-11T06:23:03;10.50;63.50
62583;DHT22;48641;51.676;5.808;2022-12-11T06:25:29;10.50;64.50
62583;DHT22;48641;51.676;5.808;2022-12-11T06:27:55;10.50;63.50
62583;DHT22;48641;51.676;5.808;2022-12-11T06:30:21;10.50;63.60
62583;DHT22;48641;51.676;5.808;2022-12-11T06:32:46;10.50;63.60
62583;DHT22;48641;51.676;5.808;2022-12-11T06:35:12;10.50;63.60
62583;DHT22;48641;51.676;5.808;2022-12-11T06:37:38;10.50;63.60
62583;DHT22;48641;51.676;5.808;2022-12-11T06:40:06;10.50;63.70
62583;DHT22;48641;51.676;5.808;2022-12-11T06:42:32;10.50;63.60
62583;DHT22;48641;51.676;5.808;2022-12-11T06:44:58;10.50;63.60
62583;DHT22;48641;51.676;5.808;2022-12-11T06:47:30;10.50;63.60
62583;DHT22;48641;51.676;5.808;2022-12-11T06:49:57;10.50;63.60
62583;DHT22;48641;51.676;5.808;2022-12-11T06:52:24;10.50;63.60
62583;DHT22;48641;51.676;5.808;2022-12-11T06:54:50;10.50;63.60
62583;DHT22;48641;51.676;5.808;2022-12-11T06:57:16;10.50;63.60
62583;DHT22;48641;51.676;5.808;2022-12-11T06:59:42;10.50;63.50
62583;DHT22;48641;51.676;5.808;2022-12-11T07:02:12;10.50;63.50
62583;DHT22;48641;51.676;5.808;2022-12-11T07:04:39;10.50;63.60
62583;DHT22;48641;51.676;5.808;2022-12-11T07:07:05;10.50;63.60
62583;DHT22;48641;51.676;5.808;2022-12-11T07:09:31;10.50;63.50
62583;DHT22;48641;51.676;5.808;2022-12-11T07:11:56;10.50;63.60
62583;DHT22;48641;51.676;5.808;2022-12-11T07:14:22;10.50;63.60
62583;DHT22;48641;51.676;5.808;2022-12-11T07:16:48;10.50;63.60
62583;DHT22;48641;51.676;5.808;2022-12-11T07:19:14;10.50;63.60
62583;DHT22;48641;51.676;5.808;2022-12-11T07:21:39;10.50;63.60
62583;DHT22;48641;51.676;5.808;2022-12-11T07:24:05;10.50;63.60
62583;DHT22;48641;51.676;5.808;2022-12-11T07:26:31;10.50;63.60
62583;DHT22;48641;51.676;5.808;2022-12-11T07:28:58;10.50;63.60
62583;DHT22;48641;51.676;5.808;2022-12-11T07:31:25;10.50;63.50
62583;DHT22;48641;51.676;5.808;2022-12-11T07:34:02;10.50;63.50
62583;DHT22;48641;51.676;5.808;2022-12-11T07:36:29;10.40;63.50
62583;DHT22;48641;51.676;5.808;2022-12-11T07:38:55;10.40;63.50
62583;DHT22;48641;51.676;5.808;2022-12-11T07:41:21;10.40;63.50
62583;DHT22;48641;51.676;5.808;2022-12-11T07:43:47;10.40;63.60
62583;DHT22;48641;51.676;5.808;2022-12-11T07:46:16;10.40;63.50
62583;DHT22;48641;51.676;5.808;2022-12-11T07:48:44;10.50;63.60
62583;DHT22;48641;51.676;5.808;2022-12-11T07:51:15;10.40;63.50
62583;DHT22;48641;51.676;5.808;2022-12-11T07:53:45;10.40;63.50
62583;DHT22;48641;51.676;5.808;2022-12-11T07:56:11;10.40;63.50
62583;DHT22;48641;51.676;5.808;2022-12-11T07:58:37;10.40;63.70
62583;DHT22;48641;51.676;5.808;2022-12-11T08:01:04;10.40;63.70
62583;DHT22;48641;51.676;5.808;2022-12-11T08:03:30;10.40;63.70
62583;DHT22;48641;51.676;5.808;2022-12-11T08:05:55;10.50;63.70
62583;DHT22;48641;51.676;5.808;2022-12-11T08:08:21;10.40;63.60
62583;DHT22;48641;51.676;5.808;2022-12-11T08:10:46;10.50;63.70
62583;DHT22;48641;51.676;5.808;2022-12-11T08:13:12;10.40;64.50
62583;DHT22;48641;51.676;5.808;2022-12-11T08:15:38;10.40;63.60
62583;DHT22;48641;51.676;5.808;2022-12-11T08:18:04;10.50;63.60
62583;DHT22;48641;51.676;5.808;2022-12-11T08:20:30;10.50;63.60
62583;DHT22;48641;51.676;5.808;2022-12-11T08:22:56;10.50;63.60
62583;DHT22;48641;51.676;5.808;2022-12-11T08:25:22;10.40;63.50
62583;DHT22;48641;51.676;5.808;2022-12-11T08:27:48;10.40;63.50
62583;DHT22;48641;51.676;5.808;2022-12-11T08:30:13;10.40;63.50
62583;DHT22;48641;51.676;5.808;2022-12-11T08:32:39;10.50;63.60
62583;DHT22;48641;51.676;5.808;2022-12-11T08:35:05;10.40;63.50
62583;DHT22;48641;51.676;5.808;2022-12-11T08:37:33;10.40;63.50
62583;DHT22;48641;51.676;5.808;2022-12-11T08:39:58;10.40;63.50
62583;DHT22;48641;51.676;5.808;2022-12-11T08:42:24;10.50;63.60
62583;DHT22;48641;51.676;5.808;2022-12-11T08:44:50;10.40;63.60
62583;DHT22;48641;51.676;5.808;2022-12-11T08:47:16;10.40;63.50
62583;DHT22;48641;51.676;5.808;2022-12-11T08:49:42;10.40;64.50
62583;DHT22;48641;51.676;5.808;2022-12-11T08:52:07;10.40;63.70
62583;DHT22;48641;51.676;5.808;2022-12-11T08:54:33;10.50;63.70
62583;DHT22;48641;51.676;5.808;2022-12-11T08:56:58;10.50;63.70
62583;DHT22;48641;51.676;5.808;2022-12-11T08:59:24;10.50;63.70
62583;DHT22;48641;51.676;5.808;2022-12-11T09:01:50;10.40;63.70
62583;DHT22;48641;51.676;5.808;2022-12-11T09:04:16;10.50;63.70
62583;DHT22;48641;51.676;5.808;2022-12-11T09:06:42;10.50;63.60
62583;DHT22;48641;51.676;5.808;2022-12-11T09:09:07;10.40;63.60
62583;DHT22;48641;51.676;5.808;2022-12-11T09:11:35;10.40;63.60
62583;DHT22;48641;51.676;5.808;2022-12-11T09:14:02;10.40;63.80
62583;DHT22;48641;51.676;5.808;2022-12-11T09:16:28;10.40;63.70
62583;DHT22;48641;51.676;5.808;2022-12-11T09:18:56;10.40;63.80
62583;DHT22;48641;51.676;5.808;2022-12-11T09:21:25;10.40;63.80
62583;DHT22;48641;51.676;5.808;2022-12-11T09:23:55;10.40;64.70
62583;DHT22;48641;51.676;5.808;2022-12-11T09:26:22;10.40;63.70
62583;DHT22;48641;51.676;5.808;2022-12-11T09:28:48;10.40;63.70
62583;DHT22;48641;51.676;5.808;2022-12-11T09:31:20;10.40;63.70
62583;DHT22;48641;51.676;5.808;2022-12-11T09:33:48;10.40;63.70
62583;DHT22;48641;51.676;5.808;2022-12-11T09:36:14;10.40;63.70
62583;DHT22;48641;51.676;5.808;2022-12-11T09:38:40;10.40;63.70
62583;DHT22;48641;51.676;5.808;2022-12-11T09:46:20;10.40;63.70
62583;DHT22;48641;51.676;5.808;2022-12-11T09:48:47;10.40;63.70
62583;DHT22;48641;51.676;5.808;2022-12-11T09:51:24;10.40;64.10
62583;DHT22;48641;51.676;5.808;2022-12-11T09:53:51;10.40;64.10
62583;DHT22;48641;51.676;5.808;2022-12-11T09:56:30;10.40;64.00
62583;DHT22;48641;51.676;5.808;2022-12-11T10:02:22;10.40;63.80
62583;DHT22;48641;51.676;5.808;2022-12-11T10:04:57;10.40;63.90
62583;DHT22;48641;51.676;5.808;2022-12-11T10:07:46;10.40;64.00
62583;DHT22;48641;51.676;5.808;2022-12-11T10:17:56;10.40;63.90
62583;DHT22;48641;51.676;5.808;2022-12-11T10:20:27;10.40;63.90
62583;DHT22;48641;51.676;5.808;2022-12-11T10:22:56;10.40;63.90
62583;DHT22;48641;51.676;5.808;2022-12-11T10:27:54;10.40;63.80
62583;DHT22;48641;51.676;5.808;2022-12-11T10:30:25;10.40;63.80
62583;DHT22;48641;51.676;5.808;2022-12-11T10:33:00;10.40;63.80
62583;DHT22;48641;51.676;5.808;2022-12-11T10:35:34;10.40;63.80
62583;DHT22;48641;51.676;5.808;2022-12-11T10:38:27;10.40;63.80
62583;DHT22;48641;51.676;5.808;2022-12-11T10:41:16;10.40;63.70
62583;DHT22;48641;51.676;5.808;2022-12-11T10:43:47;10.40;63.70
62583;DHT22;48641;51.676;5.808;2022-12-11T10:46:18;10.40;63.80
62583;DHT22;48641;51.676;5.808;2022-12-11T10:48:56;10.40;63.90
62583;DHT22;48641;51.676;5.808;2022-12-11T10:51:24;10.40;63.90
62583;DHT22;48641;51.676;5.808;2022-12-11T10:53:56;10.30;63.80
62583;DHT22;48641;51.676;5.808;2022-12-11T10:56:27;10.40;63.90
62583;DHT22;48641;51.676;5.808;2022-12-11T10:58:54;10.40;63.80
62583;DHT22;48641;51.676;5.808;2022-12-11T11:01:25;10.40;63.90
62583;DHT22;48641;51.676;5.808;2022-12-11T11:06:21;10.40;63.80
62583;DHT22;48641;51.676;5.808;2022-12-11T11:08:49;10.40;63.80
62583;DHT22;48641;51.676;5.808;2022-12-11T11:11:29;10.40;63.80
62583;DHT22;48641;51.676;5.808;2022-12-11T11:14:19;10.40;63.70
62583;DHT22;48641;51.676;5.808;2022-12-11T11:16:47;10.40;63.80
62583;DHT22;48641;51.676;5.808;2022-12-11T11:21:52;10.40;63.80
62583;DHT22;48641;51.676;5.808;2022-12-11T11:24:40;10.40;63.80
62583;DHT22;48641;51.676;5.808;2022-12-11T11:29:52;10.40;63.80
62583;DHT22;48641;51.676;5.808;2022-12-11T11:32:24;10.40;63.80
62583;DHT22;48641;51.676;5.808;2022-12-11T11:34:51;10.40;63.80
62583;DHT22;48641;51.676;5.808;2022-12-11T11:37:30;10.40;63.80
62583;DHT22;48641;51.676;5.808;2022-12-11T11:40:02;10.40;63.70
62583;DHT22;48641;51.676;5.808;2022-12-11T11:42:44;10.40;63.80
62583;DHT22;48641;51.676;5.808;2022-12-11T11:45:16;10.40;63.70
62583;DHT22;48641;51.676;5.808;2022-12-11T11:50:43;10.40;63.80
62583;DHT22;48641;51.676;5.808;2022-12-11T11:53:16;10.30;63.70
62583;DHT22;48641;51.676;5.808;2022-12-11T11:56:25;10.40;63.80
62583;DHT22;48641;51.676;5.808;2022-12-11T12:01:36;10.30;63.70
62583;DHT22;48641;51.676;5.808;2022-12-11T12:04:03;10.30;63.80
62583;DHT22;48641;51.676;5.808;2022-12-11T12:09:40;10.40;64.70
62583;DHT22;48641;51.676;5.808;2022-12-11T12:20:42;10.30;63.70
62583;DHT22;48641;51.676;5.808;2022-12-11T12:23:37;10.30;63.70
62583;DHT22;48641;51.676;5.808;2022-12-11T12:26:27;10.30;63.80
62583;DHT22;48641;51.676;5.808;2022-12-11T12:35:39;10.30;63.80
62583;DHT22;48641;51.676;5.808;2022-12-11T12:40:39;10.30;63.90
62583;DHT22;48641;51.676;5.808;2022-12-11T12:46:20;10.20;63.90
62583;DHT22;48641;51.676;5.808;2022-12-11T12:48:47;10.20;64.00
62583;DHT22;48641;51.676;5.808;2022-12-11T12:51:14;10.20;64.10
62583;DHT22;48641;51.676;5.808;2022-12-11T12:53:45;10.20;64.10
62583;DHT22;48641;51.676;5.808;2022-12-11T12:56:12;10.20;64.00
62583;DHT22;48641;51.676;5.808;2022-12-11T13:06:44;10.30;63.90
62583;DHT22;48641;51.676;5.808;2022-12-11T13:09:27;10.30;63.90
62583;DHT22;48641;51.676;5.808;2022-12-11T13:11:56;10.30;63.90
62583;DHT22;48641;51.676;5.808;2022-12-11T13:17:04;10.30;63.80
62583;DHT22;48641;51.676;5.808;2022-12-11T13:19:34;10.30;63.70
62583;DHT22;48641;51.676;5.808;2022-12-11T13:22:20;10.30;63.90
62583;DHT22;48641;51.676;5.808;2022-12-11T13:29:49;10.30;63.80
62583;DHT22;48641;51.676;5.808;2022-12-11T13:34:44;10.30;63.80
62583;DHT22;48641;51.676;5.808;2022-12-11T13:37:35;10.30;63.70
62583;DHT22;48641;51.676;5.808;2022-12-11T13:40:14;10.40;63.70
62583;DHT22;48641;51.676;5.808;2022-12-11T13:43:19;10.30;63.70
62583;DHT22;48641;51.676;5.808;2022-12-11T13:45:51;10.30;63.70
62583;DHT22;48641;51.676;5.808;2022-12-11T13:48:26;10.30;63.80
62583;DHT22;48641;51.676;5.808;2022-12-11T13:50:52;10.30;63.70
62583;DHT22;48641;51.676;5.808;2022-12-11T13:53:20;10.30;63.70
62583;DHT22;48641;51.676;5.808;2022-12-11T13:56:02;10.30;63.70
62583;DHT22;48641;51.676;5.808;2022-12-11T13:58:29;10.40;63.70
62583;DHT22;48641;51.676;5.808;2022-12-11T14:01:11;10.30;63.70
62583;DHT22;48641;51.676;5.808;2022-12-11T14:03:40;10.40;63.70
62583;DHT22;48641;51.676;5.808;2022-12-11T14:06:08;10.30;63.70
62583;DHT22;48641;51.676;5.808;2022-12-11T14:08:36;10.30;63.70
62583;DHT22;48641;51.676;5.808;2022-12-11T14:11:04;10.30;63.90
62583;DHT22;48641;51.676;5.808;2022-12-11T14:13:38;10.30;63.90
62583;DHT22;48641;51.676;5.808;2022-12-11T14:16:05;10.30;64.80
62583;DHT22;48641;51.676;5.808;2022-12-11T14:18:33;10.30;63.90
62583;DHT22;48641;51.676;5.808;2022-12-11T14:21:02;10.30;63.80
62583;DHT22;48641;51.676;5.808;2022-12-11T14:23:31;10.30;64.00
62583;DHT22;48641;51.676;5.808;2022-12-11T14:26:18;10.30;63.90
62583;DHT22;48641;51.676;5.808;2022-12-11T14:28:44;10.30;63.90
62583;DHT22;48641;51.676;5.808;2022-12-11T14:31:14;10.30;63.90
62583;DHT22;48641;51.676;5.808;2022-12-11T14:33:44;10.30;63.80
62583;DHT22;48641;51.676;5.808;2022-12-11T14:36:13;10.30;63.80
62583;DHT22;48641;51.676;5.808;2022-12-11T14:39:05;10.30;63.80
62583;DHT22;48641;51.676;5.808;2022-12-11T14:44:04;10.30;63.80
62583;DHT22;48641;51.676;5.808;2022-12-11T14:47:15;10.30;63.80
62583;DHT22;48641;51.676;5.808;2022-12-11T14:52:15;10.30;63.70
62583;DHT22;48641;51.676;5.808;2022-12-11T14:54:45;10.30;63.80
62583;DHT22;48641;51.676;5.808;2022-12-11T14:57:18;10.30;63.80
62583;DHT22;48641;51.676;5.808;2022-12-11T14:59:48;10.30;63.80
62583;DHT22;48641;51.676;5.808;2022-12-11T15:02:28;10.30;63.70
62583;DHT22;48641;51.676;5.808;2022-12-11T15:05:17;10.30;63.70
62583;DHT22;48641;51.676;5.808;2022-12-11T15:10:34;10.30;63.80
62583;DHT22;48641;51.676;5.808;2022-12-11T15:13:02;10.30;63.80
62583;DHT22;48641;51.676;5.808;2022-12-11T15:15:29;10.30;63.80
62583;DHT22;48641;51.676;5.808;2022-12-11T15:17:57;10.30;63.80
62583;DHT22;48641;51.676;5.808;2022-12-11T15:20:30;10.30;63.70
62583;DHT22;48641;51.676;5.808;2022-12-11T15:22:58;10.30;63.70
62583;DHT22;48641;51.676;5.808;2022-12-11T15:25:26;10.30;63.80
62583;DHT22;48641;51.676;5.808;2022-12-11T15:27:58;10.30;63.80
62583;DHT22;48641;51.676;5.808;2022-12-11T15:30:30;10.30;63.70
62583;DHT22;48641;51.676;5.808;2022-12-11T15:35:35;10.40;63.70
62583;DHT22;48641;51.676;5.808;2022-12-11T15:38:01;10.30;63.60
62583;DHT22;48641;51.676;5.808;2022-12-11T15:40:26;10.30;63.70
62583;DHT22;48641;51.676;5.808;2022-12-11T15:42:53;10.30;63.60
62583;DHT22;48641;51.676;5.808;2022-12-11T15:45:26;10.30;63.60
62583;DHT22;48641;51.676;5.808;2022-12-11T15:47:53;10.30;63.60
62583;DHT22;48641;51.676;5.808;2022-12-11T15:50:26;10.30;63.60
62583;DHT22;48641;51.676;5.808;2022-12-11T15:52:54;10.40;63.60
62583;DHT22;48641;51.676;5.808;2022-12-11T15:55:21;10.30;63.60
62583;DHT22;48641;51.676;5.808;2022-12-11T15:57:58;10.30;63.60
62583;DHT22;48641;51.676;5.808;2022-12-11T16:00:26;10.30;63.50
62583;DHT22;48641;51.676;5.808;2022-12-11T16:02:52;10.30;63.60
62583;DHT22;48641;51.676;5.808;2022-12-11T16:05:18;10.30;63.60
62583;DHT22;48641;51.676;5.808;2022-12-11T16:07:44;10.30;63.60
62583;DHT22;48641;51.676;5.808;2022-12-11T16:10:14;10.30;63.60
62583;DHT22;48641;51.676;5.808;2022-12-11T16:12:40;10.30;63.50
62583;DHT22;48641;51.676;5.808;2022-12-11T16:15:07;10.30;63.60
62583;DHT22;48641;51.676;5.808;2022-12-11T16:17:33;10.30;63.60
62583;DHT22;48641;51.676;5.808;2022-12-11T16:19:58;10.30;63.50
62583;DHT22;48641;51.676;5.808;2022-12-11T16:22:24;10.30;63.50
62583;DHT22;48641;51.676;5.808;2022-12-11T16:24:53;10.30;63.50
62583;DHT22;48641;51.676;5.808;2022-12-11T16:27:19;10.30;63.50
62583;DHT22;48641;51.676;5.808;2022-12-11T16:29:45;10.30;63.50
62583;DHT22;48641;51.676;5.808;2022-12-11T16:32:11;10.30;63.50
62583;DHT22;48641;51.676;5.808;2022-12-11T16:34:37;10.30;63.50
62583;DHT22;48641;51.676;5.808;2022-12-11T16:37:04;10.30;63.40
62583;DHT22;48641;51.676;5.808;2022-12-11T16:39:29;10.30;63.50
62583;DHT22;48641;51.676;5.808;2022-12-11T16:41:55;10.30;63.50
62583;DHT22;48641;51.676;5.808;2022-12-11T16:44:22;10.40;63.50
62583;DHT22;48641;51.676;5.808;2022-12-11T16:46:49;10.40;63.70
62583;DHT22;48641;51.676;5.808;2022-12-11T16:49:15;10.30;63.60
62583;DHT22;48641;51.676;5.808;2022-12-11T16:51:41;10.30;63.50
62583;DHT22;48641;51.676;5.808;2022-12-11T16:54:06;10.30;63.60
62583;DHT22;48641;51.676;5.808;2022-12-11T16:56:32;10.30;63.70
62583;DHT22;48641;51.676;5.808;2022-12-11T16:59:00;10.30;63.60
62583;DHT22;48641;51.676;5.808;2022-12-11T17:01:25;10.30;63.60
62583;DHT22;48641;51.676;5.808;2022-12-11T17:03:51;10.30;63.50
62583;DHT22;48641;51.676;5.808;2022-12-11T17:06:17;10.30;63.60
62583;DHT22;48641;51.676;5.808;2022-12-11T17:08:43;10.30;63.60
62583;DHT22;48641;51.676;5.808;2022-12-11T17:11:12;10.30;63.50
62583;DHT22;48641;51.676;5.808;2022-12-11T17:13:38;10.30;63.60
62583;DHT22;48641;51.676;5.808;2022-12-11T17:16:08;10.30;63.50
62583;DHT22;48641;51.676;5.808;2022-12-11T17:18:34;10.30;63.60
62583;DHT22;48641;51.676;5.808;2022-12-11T17:21:08;10.30;63.60
62583;DHT22;48641;51.676;5.808;2022-12-11T17:23:34;10.30;63.60
62583;DHT22;48641;51.676;5.808;2022-12-11T17:26:00;10.30;63.60
62583;DHT22;48641;51.676;5.808;2022-12-11T17:28:27;10.30;63.60
62583;DHT22;48641;51.676;5.808;2022-12-11T17:30:53;10.30;63.60
62583;DHT22;48641;51.676;5.808;2022-12-11T17:33:19;10.30;63.50
62583;DHT22;48641;51.676;5.808;2022-12-11T17:35:44;10.30;63.60
62583;DHT22;48641;51.676;5.808;2022-12-11T17:38:10;10.30;63.50